Time;durP1;ratioP1;P1;durP2;ratioP2;P2;SDS_P1;SDS_P2;PMS_P1;PMS_P2;Temp;Humidity;BMP_temperature;BMP_pressure;BME280_temperature;BME280_humidity;BME280_pressure;Samples;Min_cycle;Max_cycle;Signal;HPM_P1;HPM_P2
2022/10/06 00:01:18;;;;;;;4.97;0.80;;;12.10;99.90;;;;;;5055319;28;20064;-82
2022/10/06 00:03:44;;;;;;;6.63;1.17;;;12.10;99.90;;;;;;5072099;28;20041;-82
2022/10/06 00:06:12;;;;;;;3.47;0.80;;;12.20;99.90;;;;;;5054268;28;20038;-82
2022/10/06 00:08:40;;;;;;;4.15;0.93;;;12.20;99.90;;;;;;5071791;28;20398;-82
2022/10/06 00:11:07;;;;;;;4.78;1.42;;;12.20;99.90;;;;;;5071807;28;20040;-82
2022/10/06 00:13:34;;;;;;;5.15;1.35;;;12.20;99.90;;;;;;5071793;28;20139;-82
2022/10/06 00:16:00;;;;;;;3.10;0.85;;;12.20;99.90;;;;;;5070795;28;20060;-83
2022/10/06 00:18:27;;;;;;;5.65;1.20;;;12.10;99.90;;;;;;5071662;28;20055;-81
2022/10/06 00:20:55;;;;;;;5.38;1.05;;;12.10;99.90;;;;;;5035439;28;20068;-81
2022/10/06 00:23:20;;;;;;;3.90;0.90;;;12.10;99.90;;;;;;5055781;28;20045;-81
2022/10/06 00:25:46;;;;;;;2.97;0.57;;;12.20;99.90;;;;;;5042288;28;20032;-81
2022/10/06 00:28:12;;;;;;;2.08;0.73;;;12.20;99.90;;;;;;5074823;28;20494;-81
2022/10/06 00:30:38;;;;;;;1.75;0.50;;;12.20;99.90;;;;;;5039222;28;20135;-80
2022/10/06 00:33:04;;;;;;;2.38;0.95;;;12.20;99.90;;;;;;5055630;28;20472;-82
2022/10/06 00:35:33;;;;;;;3.92;1.00;;;12.20;99.90;;;;;;5065771;28;20044;-82
2022/10/06 00:38:03;;;;;;;6.70;0.93;;;12.10;99.90;;;;;;5058411;28;20076;-82
2022/10/06 00:40:30;;;;;;;1.77;0.88;;;12.10;99.90;;;;;;5075346;28;20487;-82
2022/10/06 00:43:00;;;;;;;2.83;0.65;;;12.10;99.90;;;;;;5058757;28;20040;-82
2022/10/06 00:45:47;;;;;;;3.88;0.82;;;12.10;99.90;;;;;;5058399;28;20040;-82
2022/10/06 00:48:21;;;;;;;6.32;1.73;;;12.10;99.90;;;;;;5072283;28;20432;-82
2022/10/06 00:50:48;;;;;;;5.35;1.05;;;12.00;99.90;;;;;;5074738;28;20044;-82
2022/10/06 00:53:15;;;;;;;3.75;1.02;;;12.00;99.90;;;;;;5075342;28;20044;-82
2022/10/06 00:55:41;;;;;;;4.88;1.00;;;12.00;99.90;;;;;;5075509;28;20111;-82
2022/10/06 00:58:09;;;;;;;4.05;0.60;;;12.00;99.90;;;;;;5058034;28;20041;-82
2022/10/06 01:00:35;;;;;;;4.80;0.85;;;12.00;99.90;;;;;;5074765;28;20040;-82
2022/10/06 01:03:07;;;;;;;4.43;1.02;;;12.00;99.90;;;;;;5058474;28;20082;-82
2022/10/06 01:05:40;;;;;;;3.55;0.90;;;12.00;99.90;;;;;;5075042;28;20032;-82
2022/10/06 01:08:06;;;;;;;5.57;0.93;;;12.00;99.90;;;;;;5074309;28;20040;-81
2022/10/06 01:10:32;;;;;;;2.78;0.63;;;11.90;99.90;;;;;;5074737;28;20055;-81
2022/10/06 01:12:58;;;;;;;3.28;1.17;;;11.90;99.90;;;;;;5074491;28;20494;-81
2022/10/06 01:15:26;;;;;;;5.95;1.20;;;11.90;99.90;;;;;;5075286;28;20051;-81
2022/10/06 01:17:58;;;;;;;2.47;0.95;;;11.90;99.90;;;;;;5074320;28;20048;-81
2022/10/06 01:20:23;;;;;;;4.57;0.88;;;11.80;99.90;;;;;;5074066;28;20041;-81
2022/10/06 01:22:54;;;;;;;1.90;0.68;;;11.80;99.90;;;;;;5057691;28;20088;-81
2022/10/06 01:25:21;;;;;;;5.78;1.23;;;11.80;99.90;;;;;;5074946;28;20461;-81
2022/10/06 01:27:52;;;;;;;2.05;0.82;;;11.70;99.90;;;;;;5067789;28;20036;-81
2022/10/06 01:30:23;;;;;;;2.50;0.63;;;11.70;99.90;;;;;;5073844;28;20045;-81
2022/10/06 01:32:49;;;;;;;2.35;0.90;;;11.70;99.90;;;;;;5073244;28;20036;-81
2022/10/06 01:35:15;;;;;;;7.00;1.15;;;11.60;99.90;;;;;;5074405;28;20234;-81
2022/10/06 01:37:41;;;;;;;3.22;1.05;;;11.60;99.90;;;;;;5037561;28;20037;-81
2022/10/06 01:40:07;;;;;;;4.10;1.17;;;11.60;99.90;;;;;;5062093;28;20501;-82
2022/10/06 01:42:34;;;;;;;2.97;1.08;;;11.70;99.90;;;;;;5057710;28;20531;-82
2022/10/06 01:45:01;;;;;;;7.70;1.05;;;11.80;99.90;;;;;;5041506;28;20111;-82
2022/10/06 01:47:27;;;;;;;3.92;1.45;;;11.80;99.90;;;;;;5074121;28;20043;-82
2022/10/06 01:49:52;;;;;;;3.35;0.80;;;11.80;99.90;;;;;;5073474;28;20039;-82
2022/10/06 01:52:19;;;;;;;3.10;0.80;;;11.80;99.90;;;;;;5056970;28;20123;-82
2022/10/06 01:54:45;;;;;;;4.07;0.85;;;11.80;99.90;;;;;;5074258;28;20386;-82
2022/10/06 01:57:10;;;;;;;4.95;1.00;;;11.70;99.90;;;;;;5074045;28;20044;-82
2022/10/06 01:59:36;;;;;;;3.05;0.60;;;11.70;99.90;;;;;;5056816;28;20135;-82
2022/10/06 02:02:03;;;;;;;2.55;0.88;;;11.60;99.90;;;;;;5056584;28;20085;-81
2022/10/06 02:04:29;;;;;;;1.38;0.55;;;11.60;99.90;;;;;;5057459;28;20055;-82
2022/10/06 02:06:55;;;;;;;1.95;0.70;;;11.50;99.90;;;;;;5057449;28;20032;-82
2022/10/06 02:09:23;;;;;;;1.90;1.02;;;11.50;99.90;;;;;;5057089;28;20041;-82
2022/10/06 02:11:49;;;;;;;3.13;0.77;;;11.60;99.90;;;;;;5073193;28;20087;-82
2022/10/06 02:14:16;;;;;;;4.57;0.85;;;11.50;99.90;;;;;;5073630;28;20056;-82
2022/10/06 02:16:43;;;;;;;2.33;0.95;;;11.50;99.90;;;;;;5057118;28;20040;-82
2022/10/06 02:19:09;;;;;;;3.92;1.05;;;11.50;99.90;;;;;;5073101;28;20045;-82
2022/10/06 02:21:35;;;;;;;6.45;1.17;;;11.50;99.90;;;;;;5056529;28;20032;-82
2022/10/06 02:24:00;;;;;;;1.92;0.75;;;11.50;99.90;;;;;;5056557;28;20036;-82
2022/10/06 02:26:26;;;;;;;2.25;0.90;;;11.50;99.90;;;;;;5073763;28;20128;-81
2022/10/06 02:28:52;;;;;;;8.35;1.48;;;11.50;99.90;;;;;;5056194;28;20421;-82
2022/10/06 02:31:18;;;;;;;4.53;0.90;;;11.40;99.90;;;;;;5056827;28;20414;-81
2022/10/06 02:33:44;;;;;;;1.90;1.15;;;11.40;99.90;;;;;;5070754;28;20441;-81
2022/10/06 02:36:12;;;;;;;2.67;0.70;;;11.50;99.90;;;;;;5063969;28;20123;-81
2022/10/06 02:38:38;;;;;;;2.95;0.60;;;11.60;99.90;;;;;;5056375;28;20036;-81
2022/10/06 02:41:05;;;;;;;6.28;1.08;;;11.60;99.90;;;;;;5072932;28;20049;-81
2022/10/06 02:43:32;;;;;;;5.53;0.93;;;11.60;99.90;;;;;;5072840;28;20052;-81
2022/10/06 02:46:04;;;;;;;7.93;1.33;;;11.60;99.90;;;;;;5072774;28;20184;-81
2022/10/06 02:48:30;;;;;;;3.85;1.00;;;11.50;99.90;;;;;;5052015;28;20041;-81
2022/10/06 02:51:02;;;;;;;5.40;1.13;;;11.50;99.90;;;;;;5055711;28;20056;-81
2022/10/06 02:53:28;;;;;;;3.95;1.33;;;11.40;99.90;;;;;;5054809;28;20086;-81
2022/10/06 02:56:02;;;;;;;3.40;1.10;;;11.50;99.90;;;;;;5070832;28;20036;-81
2022/10/06 02:58:31;;;;;;;3.28;1.00;;;11.50;99.90;;;;;;5055254;28;20044;-81
2022/10/06 03:01:05;;;;;;;2.03;0.70;;;11.50;99.90;;;;;;5072231;28;20086;-81
2022/10/06 03:03:33;;;;;;;3.03;0.85;;;11.60;99.90;;;;;;5073438;28;20044;-80
2022/10/06 03:06:20;;;;;;;4.68;0.93;;;11.60;99.90;;;;;;5073189;28;20037;-80
2022/10/06 03:08:57;;;;;;;;;;;11.60;99.90;;;;;;5073567;28;20120;-80
2022/10/06 03:11:28;;;;;;;3.10;1.48;;;11.60;99.90;;;;;;5073530;28;19995;-80
2022/10/06 03:13:54;;;;;;;5.55;0.93;;;11.50;99.90;;;;;;5072206;28;20056;-80
2022/10/06 03:16:23;;;;;;;3.63;0.95;;;11.40;99.90;;;;;;5072011;28;20048;-80
2022/10/06 03:18:50;;;;;;;4.32;0.90;;;11.40;99.90;;;;;;5072120;28;20491;-80
2022/10/06 03:21:17;;;;;;;1.80;1.13;;;11.30;99.90;;;;;;5055683;28;20036;-81
2022/10/06 03:23:44;;;;;;;3.22;0.88;;;11.20;99.90;;;;;;5072419;28;20490;-82
2022/10/06 03:26:11;;;;;;;2.38;0.88;;;11.10;99.90;;;;;;5071977;28;20040;-82
2022/10/06 03:28:38;;;;;;;3.63;0.95;;;11.20;99.90;;;;;;5072482;28;20050;-81
2022/10/06 03:31:05;;;;;;;4.00;1.45;;;11.10;99.90;;;;;;5052193;28;20048;-82
2022/10/06 03:33:31;;;;;;;6.45;0.82;;;11.10;99.90;;;;;;5035883;28;20044;-82
2022/10/06 03:36:00;;;;;;;5.57;1.30;;;11.10;99.90;;;;;;5058176;28;20098;-81
2022/10/06 03:38:26;;;;;;;2.55;1.30;;;11.10;99.90;;;;;;5055707;28;20127;-81
2022/10/06 03:40:52;;;;;;;1.90;0.70;;;11.10;99.90;;;;;;5071605;28;20554;-81
2022/10/06 03:43:18;;;;;;;2.70;0.90;;;11.00;99.90;;;;;;5055265;28;20052;-82
2022/10/06 03:45:55;;;;;;;2.95;0.70;;;11.00;99.90;;;;;;5055317;28;20166;-81
2022/10/06 03:48:21;;;;;;;5.25;1.05;;;11.10;99.90;;;;;;5072053;28;20098;-81
2022/10/06 03:50:56;;;;;;;1.08;0.65;;;11.00;99.90;;;;;;5071506;28;20120;-81
2022/10/06 03:53:24;;;;;;;5.47;1.58;;;10.90;99.90;;;;;;5071817;28;20170;-81
2022/10/06 03:56:07;;;;;;;5.80;0.70;;;11.10;99.90;;;;;;5071411;28;20036;-80
2022/10/06 03:58:36;;;;;;;2.90;0.47;;;10.90;99.90;;;;;;5056478;28;20048;-81
2022/10/06 04:01:14;;;;;;;4.30;1.75;;;10.80;99.90;;;;;;5060422;28;20035;-81
2022/10/06 04:03:40;;;;;;;1.90;0.70;;;10.80;99.90;;;;;;5072007;28;20047;-81
2022/10/06 04:06:13;;;;;;;4.90;0.93;;;10.90;99.90;;;;;;5052114;28;20428;-80
2022/10/06 04:08:40;;;;;;;2.33;0.90;;;10.90;99.90;;;;;;5052189;28;20102;-81
2022/10/06 04:11:14;;;;;;;6.15;0.88;;;10.90;99.90;;;;;;5058038;28;20123;-81
2022/10/06 04:13:42;;;;;;;6.38;1.17;;;11.00;99.90;;;;;;5071766;28;20103;-80
2022/10/06 04:16:24;;;;;;;7.43;1.30;;;10.90;99.90;;;;;;5071756;28;20079;-81
2022/10/06 04:18:52;;;;;;;5.55;1.20;;;10.90;99.90;;;;;;5071747;28;20081;-81
2022/10/06 04:21:18;;;;;;;4.05;0.90;;;10.90;99.90;;;;;;5071467;28;20033;-81
2022/10/06 04:23:44;;;;;;;3.97;0.73;;;10.90;99.90;;;;;;5071462;28;20041;-81
2022/10/06 04:26:12;;;;;;;7.07;1.35;;;10.90;99.90;;;;;;5037630;28;20486;-81
2022/10/06 04:28:40;;;;;;;3.92;0.88;;;11.00;99.90;;;;;;5071861;28;20127;-82
2022/10/06 04:31:14;;;;;;;5.25;0.93;;;11.00;99.90;;;;;;5054869;28;20098;-82
2022/10/06 04:33:41;;;;;;;3.53;0.70;;;11.00;99.90;;;;;;5055337;28;20050;-82
2022/10/06 04:36:09;;;;;;;5.07;0.93;;;11.00;99.90;;;;;;5071174;28;20036;-82
2022/10/06 04:38:35;;;;;;;6.80;1.23;;;11.00;99.90;;;;;;5038753;28;20048;-82
2022/10/06 04:41:13;;;;;;;5.30;1.15;;;11.00;99.90;;;;;;5034965;28;20037;-82
2022/10/06 04:43:39;;;;;;;7.07;0.90;;;11.00;99.90;;;;;;5070149;28;20452;-81
2022/10/06 04:46:05;;;;;;;2.75;0.65;;;11.00;99.90;;;;;;5054713;28;20138;-81
2022/10/06 04:48:31;;;;;;;5.40;1.20;;;11.00;99.90;;;;;;5071206;28;20044;-81
2022/10/06 04:50:59;;;;;;;1.45;0.60;;;11.00;99.90;;;;;;5054868;28;20525;-81
2022/10/06 04:53:27;;;;;;;4.65;0.95;;;11.00;99.90;;;;;;5070869;28;20051;-81
2022/10/06 04:55:59;;;;;;;4.25;1.17;;;11.00;99.90;;;;;;5054805;28;20072;-81
2022/10/06 04:58:26;;;;;;;3.42;0.90;;;10.90;99.90;;;;;;5054149;28;20044;-80
2022/10/06 05:00:51;;;;;;;5.20;1.02;;;10.90;99.90;;;;;;5071094;28;20073;-81
2022/10/06 05:03:17;;;;;;;7.85;1.15;;;10.80;99.90;;;;;;5071263;28;20440;-81
2022/10/06 05:05:43;;;;;;;7.05;0.85;;;10.80;99.90;;;;;;5071081;28;20041;-82
2022/10/06 05:08:09;;;;;;;9.27;1.17;;;11.10;99.90;;;;;;5073073;28;20063;-81
2022/10/06 05:10:34;;;;;;;2.88;0.70;;;11.10;99.90;;;;;;5072785;28;20070;-81
2022/10/06 05:13:02;;;;;;;6.22;0.98;;;10.70;99.90;;;;;;5056351;28;20075;-81
2022/10/06 05:15:28;;;;;;;3.58;0.90;;;10.70;99.90;;;;;;5058183;28;20092;-81
2022/10/06 05:17:54;;;;;;;6.95;1.30;;;10.70;99.90;;;;;;5041285;28;20040;-80
2022/10/06 05:20:21;;;;;;;7.18;1.67;;;10.70;99.90;;;;;;5057746;28;20040;-81
2022/10/06 05:22:48;;;;;;;5.80;1.80;;;10.70;99.90;;;;;;5074405;28;20055;-80
2022/10/06 05:25:14;;;;;;;1.95;0.50;;;10.80;99.90;;;;;;5074176;28;20052;-81
2022/10/06 05:27:39;;;;;;;5.53;1.08;;;10.80;99.90;;;;;;5074811;28;20090;-81
2022/10/06 05:30:06;;;;;;;3.60;0.70;;;10.80;99.90;;;;;;5041054;28;20444;-81
2022/10/06 05:32:31;;;;;;;3.83;1.05;;;10.70;99.90;;;;;;5057778;28;20040;-81
2022/10/06 05:34:57;;;;;;;5.30;1.75;;;10.70;99.90;;;;;;5057520;28;20452;-81
2022/10/06 05:37:24;;;;;;;4.82;1.02;;;10.70;99.90;;;;;;5057665;28;20036;-82
2022/10/06 05:39:49;;;;;;;4.85;1.35;;;10.80;99.90;;;;;;5073900;28;20516;-81
2022/10/06 05:42:15;;;;;;;5.60;1.13;;;10.90;99.90;;;;;;5041020;28;20119;-81
2022/10/06 05:44:41;;;;;;;5.60;1.40;;;11.00;99.90;;;;;;5073487;28;20500;-82
2022/10/06 05:47:07;;;;;;;0.90;0.40;;;11.00;99.90;;;;;;5074336;28;20040;-82
2022/10/06 05:49:32;;;;;;;3.88;0.70;;;11.10;99.90;;;;;;5069215;28;20467;-80
2022/10/06 05:51:58;;;;;;;2.33;0.63;;;11.00;99.90;;;;;;5057499;28;20050;-80
2022/10/06 05:54:24;;;;;;;6.32;0.90;;;11.00;99.90;;;;;;5056565;28;20032;-80
2022/10/06 05:56:49;;;;;;;2.80;0.68;;;11.00;99.90;;;;;;5053214;28;20037;-80
2022/10/06 05:59:15;;;;;;;4.97;1.17;;;10.80;99.90;;;;;;5073390;28;20036;-80
2022/10/06 06:01:42;;;;;;;2.80;1.05;;;10.90;99.90;;;;;;5041153;28;20041;-80
2022/10/06 06:04:10;;;;;;;3.35;1.08;;;11.10;99.90;;;;;;5074810;28;20045;-80
2022/10/06 06:06:47;;;;;;;8.88;1.45;;;11.00;99.90;;;;;;5074557;28;20093;-80
2022/10/06 06:09:18;;;;;;;2.05;1.45;;;11.10;99.90;;;;;;5054217;28;20459;-81
2022/10/06 06:11:46;;;;;;;4.35;1.02;;;11.10;99.90;;;;;;5054431;28;20063;-81
2022/10/06 06:14:14;;;;;;;6.53;1.73;;;11.10;99.90;;;;;;5056190;28;20115;-80
2022/10/06 06:16:41;;;;;;;4.55;1.10;;;11.10;99.90;;;;;;5067766;28;20115;-81
2022/10/06 06:19:08;;;;;;;4.53;0.60;;;11.30;99.90;;;;;;5073780;28;20491;-81
2022/10/06 06:21:35;;;;;;;6.47;1.40;;;11.30;99.90;;;;;;5057334;28;20040;-81
2022/10/06 06:24:02;;;;;;;3.85;1.10;;;11.50;99.90;;;;;;5074208;28;20044;-80
2022/10/06 06:26:30;;;;;;;3.80;0.95;;;11.50;99.90;;;;;;5040143;28;20051;-80
2022/10/06 06:29:05;;;;;;;5.90;1.23;;;11.60;99.90;;;;;;5072557;28;20115;-80
2022/10/06 06:31:36;;;;;;;6.70;1.05;;;11.60;99.90;;;;;;5069925;28;20498;-81
2022/10/06 06:34:06;;;;;;;8.40;1.30;;;11.70;99.90;;;;;;5056421;28;20041;-80
2022/10/06 06:36:35;;;;;;;4.75;1.20;;;11.90;99.90;;;;;;5055567;28;20098;-80
2022/10/06 06:39:08;;;;;;;4.88;0.88;;;11.90;99.90;;;;;;5056599;28;20048;-81
2022/10/06 06:41:36;;;;;;;15.68;1.15;;;12.00;99.90;;;;;;5042663;28;20044;-80
2022/10/06 06:44:03;;;;;;;3.72;0.73;;;12.00;99.90;;;;;;5067654;28;20068;-80
2022/10/06 06:46:30;;;;;;;3.53;1.00;;;12.20;99.90;;;;;;5072873;28;20037;-80
2022/10/06 06:49:03;;;;;;;3.13;0.77;;;12.30;99.90;;;;;;5055527;28;20044;-80
2022/10/06 06:51:32;;;;;;;6.65;2.42;;;12.30;99.90;;;;;;5072825;28;20094;-80
2022/10/06 06:54:01;;;;;;;7.63;1.63;;;12.30;99.90;;;;;;5045415;28;20043;-80
2022/10/06 06:56:33;;;;;;;4.68;0.98;;;12.40;99.90;;;;;;5037364;28;20402;-81
2022/10/06 06:59:00;;;;;;;5.85;1.30;;;12.50;99.90;;;;;;5071672;28;20709;-82
2022/10/06 07:01:26;;;;;;;5.78;1.38;;;13.50;99.90;;;;;;5056427;28;20467;-82
2022/10/06 07:03:54;;;;;;;2.88;0.95;;;14.50;99.90;;;;;;5053022;28;20037;-82
2022/10/06 07:06:21;;;;;;;2.13;0.85;;;15.70;99.90;;;;;;5069184;28;20032;-82
2022/10/06 07:08:48;;;;;;;2.42;0.85;;;16.70;99.90;;;;;;5056427;28;20043;-82
2022/10/06 07:11:17;;;;;;;8.02;1.50;;;17.30;99.90;;;;;;5070480;28;20040;-82
2022/10/06 07:13:43;;;;;;;3.50;1.20;;;17.40;99.90;;;;;;5072059;28;20048;-81
2022/10/06 07:27:22;;;;;;;2.83;1.00;;;20.40;99.90;;;;;;5043956;28;20045;-81
2022/10/06 07:29:52;;;;;;;3.47;1.25;;;21.20;99.90;;;;;;5072497;28;20510;-81
2022/10/06 07:32:20;;;;;;;4.72;0.80;;;21.30;97.70;;;;;;5038794;28;20050;-81
2022/10/06 07:34:49;;;;;;;3.08;1.20;;;21.70;98.70;;;;;;5072273;28;20052;-81
2022/10/06 07:37:15;;;;;;;6.53;1.40;;;21.80;97.40;;;;;;5072202;28;20120;-81
2022/10/06 07:39:43;;;;;;;2.38;0.60;;;22.00;96.60;;;;;;5072893;28;20044;-81
2022/10/06 07:42:14;;;;;;;1.45;0.50;;;22.30;96.80;;;;;;5072393;28;20048;-81
2022/10/06 07:45:37;;;;;;;3.38;1.00;;;22.20;96.40;;;;;;5056370;28;20043;-81
2022/10/06 07:47:36;;;;;;;5.25;0.95;;;22.60;96.70;;;;;;5072191;28;20047;-81
2022/10/06 07:50:07;;;;;;;3.22;1.00;;;22.90;95.20;;;;;;5067429;28;20055;-82
2022/10/06 07:52:35;;;;;;;5.07;1.08;;;23.10;93.40;;;;;;5055362;28;20068;-81
2022/10/06 07:55:01;;;;;;;3.15;1.00;;;23.50;93.80;;;;;;5072395;28;20391;-81
2022/10/06 07:57:34;;;;;;;4.32;1.40;;;23.90;93.50;;;;;;5055370;28;20036;-81
2022/10/06 08:00:00;;;;;;;3.00;0.90;;;24.30;93.30;;;;;;5072261;28;20040;-82
2022/10/06 08:02:27;;;;;;;2.88;0.85;;;24.60;91.20;;;;;;5071978;28;20120;-82
2022/10/06 08:04:53;;;;;;;2.95;0.70;;;24.80;90.80;;;;;;5038955;28;20149;-82
2022/10/06 08:07:19;;;;;;;5.05;1.20;;;24.60;90.20;;;;;;5055417;28;20071;-82
2022/10/06 08:09:44;;;;;;;4.05;1.77;;;24.70;91.60;;;;;;5072228;28;20043;-82
2022/10/06 08:14:54;;;;;;;3.08;0.77;;;25.00;90.40;;;;;;5071918;28;20059;-82
2022/10/06 08:17:20;;;;;;;4.43;1.15;;;25.30;90.20;;;;;;5055139;28;20041;-82
2022/10/06 08:19:46;;;;;;;2.55;0.60;;;25.60;88.80;;;;;;5071914;28;20040;-81
2022/10/06 08:22:14;;;;;;;1.98;0.98;;;25.20;86.80;;;;;;5071808;28;20421;-81
2022/10/06 08:24:40;;;;;;;2.85;1.02;;;25.20;88.90;;;;;;5071725;28;20550;-81
2022/10/06 08:27:08;;;;;;;2.60;1.23;;;25.30;90.00;;;;;;5071744;28;20120;-81
2022/10/06 08:29:34;;;;;;;3.90;1.08;;;25.40;89.70;;;;;;5072048;28;20466;-81
2022/10/06 08:32:00;;;;;;;7.63;1.67;;;25.90;89.60;;;;;;5054958;28;20474;-81
2022/10/06 08:34:26;;;;;;;3.20;0.95;;;26.10;85.40;;;;;;5055036;28;20040;-79
2022/10/06 08:36:52;;;;;;;2.83;0.85;;;26.00;87.30;;;;;;5055083;28;20415;-80
2022/10/06 08:39:18;;;;;;;3.83;0.80;;;26.30;88.70;;;;;;5054934;28;20078;-80
2022/10/06 08:41:50;;;;;;;3.13;0.68;;;26.80;85.10;;;;;;5055011;28;20166;-80
2022/10/06 08:44:31;;;;;;;3.70;0.90;;;26.70;83.80;;;;;;5075476;28;20040;-81
2022/10/06 08:47:18;;;;;;;2.35;1.00;;;26.50;83.40;;;;;;5075363;28;20123;-80
2022/10/06 08:49:49;;;;;;;1.67;0.80;;;26.20;82.30;;;;;;5075212;28;20373;-80
2022/10/06 08:52:32;;;;;;;3.95;1.63;;;26.00;83.40;;;;;;5058612;28;20045;-80
2022/10/06 08:54:57;;;;;;;1.45;0.73;;;26.20;85.50;;;;;;5075648;28;20037;-80
2022/10/06 08:57:50;;;;;;;4.50;0.88;;;26.80;82.70;;;;;;5058418;28;20040;-80
2022/10/06 09:00:17;;;;;;;2.75;1.05;;;26.30;80.40;;;;;;5058497;28;20119;-79
2022/10/06 09:02:46;;;;;;;1.48;0.70;;;25.90;81.60;;;;;;5075317;28;20128;-79
2022/10/06 09:05:24;;;;;;;2.33;1.23;;;25.70;83.20;;;;;;5075083;28;20040;-79
2022/10/06 09:08:26;;;;;;;3.38;1.20;;;25.10;82.20;;;;;;5074967;28;20120;-79
2022/10/06 09:11:21;;;;;;;2.40;0.85;;;24.80;84.40;;;;;;5058513;28;20051;-80
2022/10/06 09:13:55;;;;;;;6.25;0.90;;;25.40;83.10;;;;;;5074817;28;20375;-80
2022/10/06 09:16:29;;;;;;;2.75;0.85;;;26.10;84.40;;;;;;5074863;28;20044;-80
2022/10/06 09:19:08;;;;;;;9.60;1.65;;;26.70;81.30;;;;;;5058414;28;20099;-80
2022/10/06 09:21:45;;;;;;;3.25;0.77;;;27.10;78.60;;;;;;5057990;28;20044;-80
2022/10/06 09:24:19;;;;;;;3.47;0.93;;;26.90;79.40;;;;;;5074803;28;20602;-80
2022/10/06 09:26:48;;;;;;;4.63;1.27;;;26.80;79.10;;;;;;5074059;22;20060;-80
2022/10/06 09:29:14;;;;;;;3.45;0.88;;;26.80;79.80;;;;;;5094940;28;20040;-81
2022/10/06 09:31:43;;;;;;;2.55;0.90;;;27.30;82.50;;;;;;5095030;28;20032;-81
2022/10/06 09:34:47;;;;;;;4.35;1.20;;;27.10;79.00;;;;;;5094737;28;20429;-81
2022/10/06 09:37:13;;;;;;;4.75;0.80;;;26.80;78.00;;;;;;5094669;28;20052;-81
2022/10/06 09:39:41;;;;;;;4.20;0.65;;;25.90;79.50;;;;;;5094944;28;20130;-80
2022/10/06 09:42:12;;;;;;;3.95;1.13;;;25.80;79.30;;;;;;5094483;28;20398;-81
2022/10/06 09:44:50;;;;;;;6.05;1.30;;;25.80;79.00;;;;;;5095075;28;20040;-80
2022/10/06 09:47:29;;;;;;;3.25;0.95;;;25.90;81.50;;;;;;5078100;28;20043;-80
2022/10/06 09:50:10;;;;;;;5.43;0.75;;;25.60;80.40;;;;;;5094373;28;20036;-80
2022/10/06 09:52:37;;;;;;;4.32;1.27;;;25.50;82.40;;;;;;5095046;28;20127;-80
2022/10/06 09:55:11;;;;;;;2.65;1.00;;;25.30;80.20;;;;;;5076548;28;20070;-80
2022/10/06 09:57:39;;;;;;;5.95;1.38;;;25.20;79.90;;;;;;5094284;28;20509;-80
2022/10/06 10:00:25;;;;;;;5.13;1.42;;;24.90;81.00;;;;;;5077813;28;20048;-80
2022/10/06 10:02:58;;;;;;;4.78;1.00;;;24.50;80.30;;;;;;5077103;28;20446;-80
2022/10/06 10:05:25;;;;;;;2.40;0.80;;;24.10;83.30;;;;;;5094194;28;20032;-80
2022/10/06 10:08:08;;;;;;;2.97;0.90;;;23.90;82.20;;;;;;5077482;28;20410;-80
2022/10/06 10:10:36;;;;;;;4.70;0.93;;;24.30;82.30;;;;;;5094063;28;20497;-80
2022/10/06 10:13:03;;;;;;;5.88;1.30;;;24.80;84.50;;;;;;5077293;28;20118;-80
2022/10/06 10:15:58;;;;;;;0.80;0.57;;;25.60;78.60;;;;;;5094190;28;20424;-80
2022/10/06 10:18:29;;;;;;;2.67;1.10;;;26.50;80.00;;;;;;5077147;28;20044;-84
2022/10/06 10:20:57;;;;;;;4.03;1.50;;;26.90;77.50;;;;;;5093799;28;20040;-84
2022/10/06 10:23:46;;;;;;;3.00;0.73;;;27.20;76.60;;;;;;5077343;28;20044;-84
2022/10/06 10:26:45;;;;;;;1.23;0.60;;;26.00;76.80;;;;;;5076439;28;20129;-84
2022/10/06 10:29:43;;;;;;;2.50;0.93;;;24.80;78.60;;;;;;5093493;28;20131;-84
2022/10/06 10:32:17;;;;;;;3.40;1.17;;;23.90;79.20;;;;;;5093616;28;20044;-84
2022/10/06 10:35:19;;;;;;;2.80;1.27;;;24.10;80.00;;;;;;5077109;28;20032;-84
2022/10/06 10:37:51;;;;;;;5.10;1.63;;;24.50;79.50;;;;;;5075226;28;20036;-84
2022/10/06 10:40:31;;;;;;;2.75;0.90;;;25.30;79.30;;;;;;5073508;28;20447;-84
2022/10/06 10:43:01;;;;;;;2.90;0.70;;;26.00;79.40;;;;;;5073048;28;20032;-84
2022/10/06 10:45:35;;;;;;;3.50;0.77;;;26.50;76.90;;;;;;5073051;28;20495;-84
2022/10/06 10:48:09;;;;;;;3.25;0.75;;;26.50;74.60;;;;;;5073048;28;20041;-85
2022/10/06 10:50:41;;;;;;;4.22;1.23;;;26.50;77.10;;;;;;5073926;28;20040;-81
2022/10/06 10:53:16;;;;;;;2.00;0.77;;;27.10;77.90;;;;;;5093434;28;20075;-81
2022/10/06 10:55:46;;;;;;;3.30;1.08;;;27.00;76.00;;;;;;5076225;28;20078;-81
2022/10/06 10:58:23;;;;;;;4.45;1.13;;;26.60;74.80;;;;;;5092955;28;20075;-80
2022/10/06 11:00:54;;;;;;;2.80;1.02;;;26.40;74.50;;;;;;5075937;28;20131;-80
2022/10/06 11:03:20;;;;;;;3.55;0.60;;;26.30;76.70;;;;;;5092908;28;20036;-81
2022/10/06 11:06:01;;;;;;;1.40;0.38;;;26.30;74.90;;;;;;5092824;28;20055;-81
2022/10/06 11:08:39;;;;;;;3.47;0.80;;;25.70;73.60;;;;;;5076115;28;20077;-84
2022/10/06 11:11:17;;;;;;;3.38;0.63;;;25.30;74.40;;;;;;5075965;28;20125;-84
2022/10/06 11:13:51;;;;;;;0.98;0.57;;;24.90;76.10;;;;;;5076178;28;20040;-84
2022/10/06 11:16:45;;;;;;;2.83;0.98;;;25.00;75.50;;;;;;5092709;28;20039;-84
2022/10/06 11:19:34;;;;;;;1.27;0.73;;;25.10;76.50;;;;;;5092836;28;20040;-84
2022/10/06 11:22:11;;;;;;;4.53;1.77;;;25.40;77.40;;;;;;5092718;28;20432;-84
2022/10/06 11:25:12;;;;;;;5.55;1.17;;;25.20;74.00;;;;;;5092995;28;20028;-84
2022/10/06 11:27:53;;;;;;;3.53;0.85;;;25.10;75.50;;;;;;5078224;28;20064;-84
2022/10/06 11:30:25;;;;;;;3.00;0.55;;;24.80;75.60;;;;;;5072496;28;20057;-84
2022/10/06 11:33:15;;;;;;;1.92;0.73;;;24.90;76.70;;;;;;5072503;28;20045;-84
2022/10/06 11:35:44;;;;;;;1.38;0.70;;;24.50;76.40;;;;;;5055557;28;20045;-84
2022/10/06 11:38:23;;;;;;;4.00;1.10;;;24.30;76.60;;;;;;5072259;28;20055;-84
2022/10/06 11:41:36;;;;;;;4.18;1.25;;;24.40;77.20;;;;;;5055366;28;20508;-80
2022/10/06 11:44:45;;;;;;;2.70;1.05;;;24.10;75.70;;;;;;5054269;28;20079;-80
2022/10/06 11:47:19;;;;;;;3.20;0.60;;;23.30;76.90;;;;;;5051008;28;20486;-80
2022/10/06 11:49:54;;;;;;;2.55;0.88;;;22.50;80.00;;;;;;5070813;28;20080;-80
2022/10/06 11:52:20;;;;;;;0.98;0.45;;;21.50;78.90;;;;;;5075382;28;20044;-80
2022/10/06 11:55:04;;;;;;;2.03;0.98;;;21.40;81.60;;;;;;5092454;28;20058;-80
2022/10/06 11:57:30;;;;;;;2.13;0.70;;;21.40;80.10;;;;;;5092530;28;20044;-80
2022/10/06 12:00:16;;;;;;;1.55;0.63;;;21.00;81.50;;;;;;5075495;28;20501;-80
2022/10/06 12:02:44;;;;;;;3.30;0.98;;;20.60;82.80;;;;;;5071211;28;20059;-80
2022/10/06 12:05:13;;;;;;;1.40;0.43;;;20.00;84.20;;;;;;5092485;28;20385;-80
2022/10/06 12:07:51;;;;;;;0.98;0.32;;;19.70;84.40;;;;;;5092301;28;20401;-80
2022/10/06 12:10:31;;;;;;;4.38;1.00;;;19.60;84.60;;;;;;5092123;28;20054;-80
2022/10/06 12:13:19;;;;;;;4.65;1.15;;;19.70;84.80;;;;;;5075083;28;20478;-80
2022/10/06 12:16:11;;;;;;;0.85;0.40;;;19.50;85.70;;;;;;5088518;28;20036;-80
2022/10/06 12:18:46;;;;;;;3.25;0.93;;;19.30;87.00;;;;;;5058299;28;20052;-80
2022/10/06 12:21:36;;;;;;;1.63;0.47;;;18.90;86.30;;;;;;5075728;28;20052;-80
2022/10/06 12:24:22;;;;;;;4.03;1.48;;;18.60;86.20;;;;;;5075864;28;20036;-80
2022/10/06 12:26:53;;;;;;;2.92;1.05;;;18.30;87.10;;;;;;5075966;28;20044;-80
2022/10/06 12:29:54;;;;;;;3.60;0.80;;;18.20;89.00;;;;;;5075695;28;20066;-80
2022/10/06 12:32:56;;;;;;;2.30;1.02;;;18.30;89.10;;;;;;5075617;28;20041;-83
2022/10/06 12:35:34;;;;;;;2.15;0.68;;;18.60;90.10;;;;;;5059314;28;20371;-83
2022/10/06 12:38:04;;;;;;;0.73;0.40;;;19.00;87.50;;;;;;5075768;28;20040;-83
2022/10/06 12:40:48;;;;;;;3.15;1.08;;;19.40;86.90;;;;;;5059011;28;20048;-84
2022/10/06 12:43:16;;;;;;;3.67;0.88;;;19.60;87.60;;;;;;5058747;28;20127;-84
2022/10/06 12:45:45;;;;;;;6.30;0.88;;;19.40;85.70;;;;;;5058706;28;20046;-83
2022/10/06 12:48:20;;;;;;;2.60;0.77;;;19.10;87.70;;;;;;5077627;28;20051;-80
2022/10/06 12:50:50;;;;;;;0.40;0.35;;;18.60;87.50;;;;;;5078583;28;20040;-80
2022/10/06 12:53:33;;;;;;;1.17;0.45;;;18.40;89.00;;;;;;5078509;28;20508;-80
2022/10/06 12:56:21;;;;;;;5.13;1.42;;;18.30;89.40;;;;;;5095410;28;20050;-80
2022/10/06 12:58:47;;;;;;;6.18;0.80;;;18.60;90.90;;;;;;5095437;28;20089;-80
2022/10/06 13:01:12;;;;;;;2.13;0.50;;;18.90;88.70;;;;;;5095542;28;20123;-80
2022/10/06 13:03:38;;;;;;;2.17;0.45;;;19.00;87.70;;;;;;5061884;28;20178;-80
2022/10/06 13:06:07;;;;;;;0.20;0.20;;;19.00;88.10;;;;;;5087934;28;20080;-80
2022/10/06 13:08:35;;;;;;;1.48;0.73;;;19.00;87.60;;;;;;5075029;28;20047;-80
2022/10/06 13:11:21;;;;;;;4.05;1.15;;;18.60;87.10;;;;;;5058192;28;20037;-80
2022/10/06 13:13:49;;;;;;;3.20;0.90;;;18.30;87.70;;;;;;5075264;28;20040;-80
2022/10/06 13:16:20;;;;;;;3.00;0.52;;;17.90;88.80;;;;;;5075076;28;20044;-80
2022/10/06 13:18:47;;;;;;;4.60;1.15;;;17.90;90.40;;;;;;5074907;28;20036;-80
2022/10/06 13:21:15;;;;;;;2.42;0.80;;;18.20;90.50;;;;;;5041492;28;20127;-83
2022/10/06 13:23:41;;;;;;;2.20;0.77;;;18.50;89.40;;;;;;5058459;28;20119;-83